Time;durP1;ratioP1;P1;durP2;ratioP2;P2;SDS_P1;SDS_P2;PMS_P1;PMS_P2;Temp;Humidity;BMP_temperature;BMP_pressure;BME280_temperature;BME280_humidity;BME280_pressure;Samples;Min_cycle;Max_cycle;Signal;HPM_P1;HPM_P2
2022/11/03 00:01:47;;;;;;;2.50;2.30;;;;;;;22.23;62.38;97992.38;5043366;28;20217;-31
2022/11/03 00:04:15;;;;;;;2.83;2.63;;;;;;;22.24;62.49;97988.13;5042598;28;20231;-31
2022/11/03 00:06:42;;;;;;;2.60;2.40;;;;;;;22.24;62.47;97980.44;5048153;28;20212;-31
2022/11/03 00:09:10;;;;;;;3.03;2.53;;;;;;;22.24;62.44;97980.44;5044699;28;20799;-31
2022/11/03 00:11:37;;;;;;;3.33;2.70;;;;;;;22.24;62.45;97985.56;5050665;28;20228;-31
2022/11/03 00:14:04;;;;;;;3.60;2.70;;;;;;;22.23;62.45;97986.41;5048761;28;20221;-31
2022/11/03 00:16:31;;;;;;;3.30;2.70;;;;;;;22.24;62.43;97985.56;5051506;28;20211;-31
2022/11/03 00:18:57;;;;;;;2.47;2.23;;;;;;;22.24;62.44;97983.91;5048775;28;20216;-31
2022/11/03 00:21:23;;;;;;;2.60;2.40;;;;;;;22.23;62.62;97984.69;5049013;28;20227;-31
2022/11/03 00:23:50;;;;;;;2.93;2.67;;;;;;;22.22;62.38;97982.06;5049316;28;20672;-31
2022/11/03 00:26:21;;;;;;;2.93;2.63;;;;;;;22.23;62.51;97981.28;5044530;28;20209;-31
2022/11/03 00:28:52;;;;;;;3.10;2.70;;;;;;;22.24;62.44;97975.34;5050144;28;20220;-31
2022/11/03 00:31:21;;;;;;;3.27;2.50;;;;;;;22.24;62.35;97972.78;5042144;28;20309;-31
2022/11/03 00:33:48;;;;;;;2.50;2.30;;;;;;;22.23;62.36;97969.34;5050319;28;20582;-31
2022/11/03 00:36:17;;;;;;;3.33;2.70;;;;;;;22.19;62.46;97957.25;5052203;28;20216;-31
2022/11/03 00:38:44;;;;;;;2.73;2.43;;;;;;;22.24;62.47;97971.09;5052808;28;20204;-31
2022/11/03 00:41:11;;;;;;;2.70;2.50;;;;;;;22.25;62.47;97961.69;5058182;28;20220;-31
2022/11/03 00:43:37;;;;;;;3.60;2.87;;;;;;;22.24;62.32;97965.09;5061216;28;20284;-31
2022/11/03 00:46:05;;;;;;;2.53;2.33;;;;;;;22.19;62.59;97959.81;5044718;28;20691;-31
2022/11/03 00:48:32;;;;;;;3.13;2.40;;;;;;;22.24;62.52;97959.97;5050396;28;20292;-31
2022/11/03 00:51:15;;;;;;;2.70;2.50;;;;;;;22.23;62.40;97961.66;5053082;28;20234;-31
2022/11/03 00:53:46;;;;;;;2.93;2.40;;;;;;;22.23;62.39;97958.25;5061714;28;20201;-31
2022/11/03 00:56:19;;;;;;;3.03;2.73;;;;;;;22.23;62.54;97956.53;5044592;28;20204;-31
2022/11/03 00:58:46;;;;;;;2.50;2.30;;;;;;;22.23;62.48;97961.66;5049341;28;20498;-31
2022/11/03 01:01:13;;;;;;;2.60;2.40;;;;;;;22.21;62.46;97944.50;5063548;28;20227;-31
2022/11/03 01:03:40;;;;;;;2.60;2.40;;;;;;;22.20;62.43;97943.63;5053481;28;20262;-31
2022/11/03 01:08:53;;;;;;;2.33;2.13;;;;;;;22.23;62.49;97942.88;5052339;28;20197;-31
2022/11/03 01:14:12;;;;;;;2.63;2.43;;;;;;;22.18;62.49;97931.59;5064373;28;20212;-31
2022/11/03 01:16:38;;;;;;;2.57;2.37;;;;;;;22.20;62.49;97935.09;5052026;28;20652;-31
2022/11/03 01:19:05;;;;;;;5.57;2.47;;;;;;;22.22;62.51;97933.44;5052281;28;20205;-31
2022/11/03 01:21:32;;;;;;;2.77;2.50;;;;;;;22.22;62.57;97931.75;5052286;28;20225;-31
2022/11/03 01:24:03;;;;;;;2.77;2.57;;;;;;;22.23;62.37;97933.47;5052002;28;20205;-31
2022/11/03 01:26:29;;;;;;;2.53;2.33;;;;;;;22.23;62.39;97925.81;5057912;28;20200;-31
2022/11/03 01:28:57;;;;;;;2.80;2.60;;;;;;;22.23;62.36;97925.81;5060599;28;20238;-31
2022/11/03 01:31:24;;;;;;;2.60;2.20;;;;;;;22.23;62.48;97918.13;5056112;28;20228;-31
2022/11/03 01:33:51;;;;;;;2.80;2.47;;;;;;;22.21;62.59;97921.47;5052255;28;20211;-31
2022/11/03 01:36:18;;;;;;;2.80;2.50;;;;;;;22.23;62.42;97915.56;5051255;28;20208;-31
2022/11/03 01:38:44;;;;;;;2.70;2.30;;;;;;;22.23;62.50;97914.72;5050590;28;20603;-31
2022/11/03 01:41:19;;;;;;;2.70;2.47;;;;;;;22.22;62.50;97913.84;5041768;28;20255;-31
2022/11/03 01:43:48;;;;;;;2.53;2.33;;;;;;;22.22;62.40;97908.72;5059138;28;20200;-31
2022/11/03 01:46:26;;;;;;;2.73;2.53;;;;;;;22.20;62.36;97902.66;5049638;28;20220;-31
2022/11/03 01:48:59;;;;;;;2.83;2.63;;;;;;;22.17;62.31;97894.03;5033945;28;20209;-31
2022/11/03 01:51:26;;;;;;;3.27;2.70;;;;;;;22.22;62.42;97898.47;5051037;28;20232;-31
2022/11/03 01:53:52;;;;;;;2.67;2.47;;;;;;;22.21;62.40;97889.06;5052040;28;20204;-31
2022/11/03 01:56:19;;;;;;;2.77;2.53;;;;;;;22.22;62.38;97885.66;5054867;28;20668;-31
2022/11/03 01:58:48;;;;;;;2.70;2.50;;;;;;;22.23;62.61;97884.00;5060366;28;20690;-31
2022/11/03 02:01:14;;;;;;;2.40;2.20;;;;;;;22.22;62.54;97880.56;5057003;28;20224;-31
2022/11/03 02:03:44;;;;;;;2.53;2.33;;;;;;;22.17;62.44;97874.41;5051016;28;20208;-31
2022/11/03 02:06:11;;;;;;;2.13;2.00;;;;;;;22.22;62.51;97880.56;5027036;28;20202;-31
2022/11/03 02:08:45;;;;;;;2.60;2.40;;;;;;;22.23;62.38;97881.44;5054830;28;20208;-31
2022/11/03 02:13:57;;;;;;;3.07;2.67;;;;;;;22.22;62.45;97872.88;5049555;28;20212;-31
2022/11/03 02:16:24;;;;;;;2.90;2.60;;;;;;;22.22;62.51;97864.31;5049754;28;20216;-31
2022/11/03 02:18:50;;;;;;;2.77;2.57;;;;;;;22.21;62.57;97863.47;5049226;28;20224;-31
2022/11/03 02:21:36;;;;;;;2.70;2.47;;;;;;;22.20;62.37;97855.72;5049618;28;20229;-31
2022/11/03 02:24:12;;;;;;;2.30;2.10;;;;;;;22.23;62.49;97858.38;5047060;28;20212;-31
2022/11/03 02:26:39;;;;;;;2.33;2.13;;;;;;;22.15;62.40;97847.03;5057878;28;20207;-31
2022/11/03 02:29:05;;;;;;;2.33;2.13;;;;;;;22.23;62.51;97853.28;5035245;28;20205;-31
2022/11/03 02:31:42;;;;;;;2.47;2.27;;;;;;;22.22;62.57;97852.38;5056687;28;20774;-31
2022/11/03 02:34:13;;;;;;;2.70;2.50;;;;;;;22.22;62.40;97848.94;5045879;28;20195;-31
2022/11/03 02:36:54;;;;;;;2.30;2.10;;;;;;;22.22;62.48;97843.81;5048069;28;20209;-31
2022/11/03 02:39:35;;;;;;;2.70;2.47;;;;;;;22.22;62.49;97838.72;5045941;28;20208;-31
2022/11/03 02:42:02;;;;;;;2.53;2.33;;;;;;;22.21;62.50;97835.31;5059267;28;20254;-31
2022/11/03 02:44:29;;;;;;;2.60;2.40;;;;;;;22.21;62.64;97832.75;5049507;28;20216;-31
2022/11/03 02:46:58;;;;;;;2.50;2.30;;;;;;;22.18;62.58;97817.28;5030798;28;20221;-31
2022/11/03 02:49:24;;;;;;;2.70;2.47;;;;;;;22.21;62.46;97819.94;5045876;28;20205;-31
2022/11/03 02:52:00;;;;;;;2.47;2.27;;;;;;;22.21;62.40;97816.50;5051778;28;20228;-31
2022/11/03 02:54:40;;;;;;;2.50;2.30;;;;;;;22.21;62.57;97809.69;5050266;28;20421;-31
2022/11/03 02:57:19;;;;;;;2.60;2.40;;;;;;;22.21;62.64;97808.81;5050765;28;20196;-31
2022/11/03 02:59:51;;;;;;;2.47;2.27;;;;;;;22.21;62.58;97816.50;5030814;28;20216;-31
2022/11/03 03:02:21;;;;;;;2.60;2.40;;;;;;;22.22;62.76;97810.53;5024967;28;20221;-31
2022/11/03 03:04:50;;;;;;;2.73;2.53;;;;;;;22.21;62.56;97808.81;5030026;28;20235;-31
2022/11/03 03:07:20;;;;;;;2.50;2.30;;;;;;;22.21;62.72;97806.25;5040997;28;20211;-31
2022/11/03 03:10:04;;;;;;;2.57;2.37;;;;;;;22.21;62.58;97809.69;5060044;28;20207;-31
2022/11/03 03:12:31;;;;;;;2.73;2.47;;;;;;;22.20;62.76;97814.78;5038735;28;20240;-31
2022/11/03 03:14:57;;;;;;;2.50;2.30;;;;;;;22.20;62.63;97805.38;5047608;28;20621;-31
2022/11/03 03:17:45;;;;;;;2.50;2.30;;;;;;;22.12;62.50;97788.94;5049755;28;20212;-31
2022/11/03 03:20:18;;;;;;;2.70;2.50;;;;;;;22.21;62.41;97809.69;5036627;28;20200;-31
2022/11/03 03:22:55;;;;;;;2.50;2.30;;;;;;;22.21;62.63;97801.13;5036214;28;20205;-31
2022/11/03 03:25:25;;;;;;;2.53;2.33;;;;;;;22.21;62.67;97796.00;5044730;28;20201;-31
2022/11/03 03:27:54;;;;;;;2.40;2.20;;;;;;;22.12;62.64;97783.81;5048123;28;20216;-31
2022/11/03 03:30:20;;;;;;;2.60;2.40;;;;;;;22.21;62.64;97798.56;5049525;28;20240;-31
2022/11/03 03:32:47;;;;;;;2.40;2.20;;;;;;;22.20;62.67;97799.41;5037807;28;20208;-31
2022/11/03 03:35:17;;;;;;;2.27;2.07;;;;;;;22.13;62.72;97779.53;5048133;28;20236;-31
2022/11/03 03:37:46;;;;;;;2.60;2.40;;;;;;;22.19;62.65;97783.16;5051404;28;20200;-30
2022/11/03 03:40:15;;;;;;;2.70;2.50;;;;;;;22.10;62.70;97764.97;5058794;28;20701;-31
2022/11/03 03:42:42;;;;;;;2.37;2.17;;;;;;;22.16;62.77;97777.97;5038481;28;20691;-31
2022/11/03 03:45:09;;;;;;;2.40;2.20;;;;;;;22.17;62.68;97779.69;5039560;28;20594;-31
2022/11/03 03:47:36;;;;;;;2.50;2.30;;;;;;;22.15;62.62;97771.09;5033385;28;20212;-31
2022/11/03 03:50:02;;;;;;;2.30;2.10;;;;;;;22.21;62.66;97785.78;5049435;28;20204;-31
2022/11/03 03:52:29;;;;;;;2.47;2.27;;;;;;;22.14;62.50;97777.03;5052342;28;20205;-31
2022/11/03 03:54:55;;;;;;;2.57;2.37;;;;;;;22.20;62.75;97781.50;5051200;28;20201;-31
2022/11/03 03:57:23;;;;;;;2.50;2.30;;;;;;;22.20;62.76;97778.94;5051339;28;20208;-31
2022/11/03 03:59:49;;;;;;;2.40;2.20;;;;;;;22.20;62.56;97779.78;5048566;28;20212;-31
2022/11/03 04:02:16;;;;;;;2.30;2.10;;;;;;;22.20;62.68;97784.91;5048143;28;20220;-31
2022/11/03 04:04:42;;;;;;;2.20;2.00;;;;;;;22.20;62.76;97779.78;5048472;28;20201;-31
2022/11/03 04:09:54;;;;;;;2.50;2.30;;;;;;;22.13;62.57;97767.63;5065187;28;20220;-31
2022/11/03 04:23:21;;;;;;;2.40;2.20;;;;;;;22.18;62.46;97768.63;5052802;28;20216;-31
2022/11/03 04:25:49;;;;;;;2.50;2.30;;;;;;;22.21;62.81;97767.84;5051979;28;20646;-31
2022/11/03 04:28:16;;;;;;;2.50;2.30;;;;;;;22.21;62.76;97760.19;5062901;28;20231;-31
2022/11/03 04:30:42;;;;;;;2.43;2.23;;;;;;;22.20;62.50;97753.31;5050923;28;20221;-31
2022/11/03 04:33:16;;;;;;;2.40;2.20;;;;;;;22.20;62.72;97746.50;5044834;28;20204;-31
2022/11/03 04:35:43;;;;;;;2.50;2.30;;;;;;;22.15;62.83;97731.84;5052382;28;20205;-31
2022/11/03 04:38:13;;;;;;;2.47;2.27;;;;;;;22.20;62.66;97743.09;5052243;28;20201;-31
2022/11/03 04:40:53;;;;;;;2.70;2.50;;;;;;;22.20;62.58;97743.94;5052635;28;20332;-31
2022/11/03 04:43:22;;;;;;;2.10;2.00;;;;;;;22.18;62.59;97737.03;5045842;28;20262;-31
2022/11/03 04:45:49;;;;;;;2.60;2.40;;;;;;;22.20;62.64;97749.06;5048452;28;20201;-31
2022/11/03 04:48:21;;;;;;;2.80;2.60;;;;;;;22.20;62.75;97738.81;5058929;28;20205;-31
2022/11/03 04:50:48;;;;;;;2.50;2.30;;;;;;;22.20;62.57;97732.84;5056753;28;20228;-31
2022/11/03 04:53:16;;;;;;;2.47;2.27;;;;;;;22.21;62.64;97734.56;5055902;28;20205;-31
2022/11/03 04:55:43;;;;;;;2.30;2.10;;;;;;;22.21;62.67;97740.56;5048865;28;20201;-31
2022/11/03 04:58:13;;;;;;;2.40;2.20;;;;;;;22.09;62.77;97699.25;5051791;28;20203;-31
2022/11/03 05:00:40;;;;;;;2.90;2.57;;;;;;;22.22;62.75;97713.25;5053342;28;20219;-31
2022/11/03 05:03:15;;;;;;;2.37;2.17;;;;;;;22.21;62.62;97702.16;5048579;28;20250;-31
2022/11/03 05:05:42;;;;;;;2.50;2.30;;;;;;;22.21;62.89;97697.06;5046912;28;20204;-31
2022/11/03 05:08:08;;;;;;;2.37;2.20;;;;;;;22.22;62.50;97693.66;5048300;28;20412;-31
2022/11/03 05:10:35;;;;;;;2.40;2.20;;;;;;;22.20;62.56;97692.72;5046022;28;20228;-31
2022/11/03 05:13:01;;;;;;;2.63;2.43;;;;;;;22.19;62.71;97693.56;5039795;28;20937;-31
2022/11/03 05:15:33;;;;;;;2.50;2.30;;;;;;;22.22;62.61;97691.09;5046692;28;20221;-31
2022/11/03 05:18:00;;;;;;;2.50;2.30;;;;;;;22.16;62.55;97685.78;5048844;28;20201;-31
2022/11/03 05:20:33;;;;;;;2.27;2.07;;;;;;;22.22;62.68;97698.78;5029089;28;20221;-31
2022/11/03 05:23:02;;;;;;;2.37;2.17;;;;;;;22.23;62.68;97699.66;5062742;28;20206;-31
2022/11/03 05:25:42;;;;;;;2.13;2.00;;;;;;;22.23;62.65;97697.09;5055994;28;20200;-31
2022/11/03 05:28:30;;;;;;;2.60;2.10;;;;;;;22.23;62.65;97681.72;5058614;28;20207;-31
2022/11/03 05:30:57;;;;;;;2.30;2.10;;;;;;;22.23;62.64;97679.19;5056510;28;20703;-31
2022/11/03 05:33:27;;;;;;;2.27;2.13;;;;;;;22.23;62.60;97674.91;5062063;28;20211;-31
2022/11/03 05:35:54;;;;;;;2.27;2.10;;;;;;;22.23;62.58;97671.50;5059965;28;20201;-31
2022/11/03 05:38:21;;;;;;;2.10;2.00;;;;;;;22.17;62.52;97651.69;5043852;28;20397;-31
2022/11/03 05:40:52;;;;;;;2.37;2.17;;;;;;;22.25;62.46;97659.59;5064096;28;20722;-31
2022/11/03 05:43:19;;;;;;;2.53;2.33;;;;;;;22.25;62.64;97659.59;5050139;28;20202;-31
2022/11/03 05:45:46;;;;;;;2.40;2.20;;;;;;;22.24;62.65;97656.19;5051857;28;20474;-31
2022/11/03 05:48:21;;;;;;;2.40;2.20;;;;;;;22.24;62.61;97665.53;5049547;28;20588;-31
2022/11/03 05:50:48;;;;;;;2.30;2.13;;;;;;;22.25;62.57;97664.72;5051705;28;20315;-31
2022/11/03 05:53:42;;;;;;;2.33;2.13;;;;;;;22.25;62.58;97664.72;5048506;28;20209;-31
2022/11/03 05:56:13;;;;;;;2.60;2.40;;;;;;;22.25;62.55;97660.47;5048595;28;20201;-31
2022/11/03 05:58:40;;;;;;;4.40;4.00;;;;;;;22.24;60.71;97679.22;5039097;28;20590;-31
2022/11/03 06:01:29;;;;;;;6.33;5.20;;;;;;;22.24;58.91;97652.75;5044824;28;20240;-31
2022/11/03 06:03:58;;;;;;;5.53;5.03;;;;;;;22.22;56.99;97650.13;5048567;28;20292;-31
2022/11/03 06:06:33;;;;;;;5.87;5.27;;;;;;;22.16;56.08;97637.16;5041428;28;20207;-31
2022/11/03 06:09:09;;;;;;;6.67;5.70;;;;;;;22.22;54.83;97646.69;5057391;28;20210;-31
2022/11/03 06:11:36;;;;;;;8.20;6.83;;;;;;;22.17;53.56;97632.91;5031585;28;20244;-31
2022/11/03 06:14:07;;;;;;;6.90;6.20;;;;;;;;;;5043890;28;20200;-31
2022/11/03 06:16:44;;;;;;;6.77;5.97;;;;;;;22.16;51.85;97629.47;5044597;28;20201;-31
2022/11/03 06:19:22;;;;;;;6.70;6.10;;;;;;;22.14;51.15;97622.59;5051338;28;20207;-31
2022/11/03 06:21:49;;;;;;;7.23;6.23;;;;;;;22.15;50.66;97626.88;5049933;28;20225;-31
2022/11/03 06:24:16;;;;;;;7.07;6.40;;;;;;;22.11;50.41;97625.06;5050590;28;20209;-31
2022/11/03 06:26:43;;;;;;;8.00;6.80;;;;;;;22.09;49.95;97621.59;5050310;28;20249;-31
2022/11/03 06:29:17;;;;;;;7.60;6.87;;;;;;;21.99;49.77;97609.34;5029445;28;20198;-31
2022/11/03 06:31:45;;;;;;;7.53;6.73;;;;;;;22.08;50.07;97619.88;5044527;28;20228;-31
2022/11/03 06:34:32;;;;;;;7.83;6.93;;;;;;;22.06;50.23;97621.50;5056964;28;20204;-31
2022/11/03 06:37:04;;;;;;;7.80;6.93;;;;;;;22.06;50.40;97618.94;5045809;28;20197;-31
2022/11/03 06:39:37;;;;;;;8.43;6.87;;;;;;;22.04;51.06;97618.00;5053902;28;20211;-31
2022/11/03 06:42:11;;;;;;;9.60;6.67;;;;;;;22.03;51.76;97623.97;5060301;28;20224;-31
2022/11/03 06:44:42;;;;;;;8.50;7.00;;;;;;;22.04;52.21;97620.56;5046143;28;20213;-31
2022/11/03 06:47:25;;;;;;;7.63;6.30;;;;;;;22.04;52.81;97620.56;5045805;28;20619;-31
2022/11/03 06:49:56;;;;;;;7.57;6.07;;;;;;;22.03;53.23;97618.84;5040924;28;20203;-31
2022/11/03 06:52:33;;;;;;;7.20;5.63;;;;;;;21.94;53.82;97608.34;5047371;28;20221;-31
2022/11/03 06:55:06;;;;;;;7.20;5.77;;;;;;;22.03;54.41;97627.41;5040401;28;20284;-31
2022/11/03 06:57:40;;;;;;;7.67;6.40;;;;;;;22.01;54.76;97623.94;5047891;28;20208;-31
2022/11/03 07:00:15;;;;;;;8.60;5.60;;;;;;;22.05;55.16;97617.22;5054534;28;20231;-31
2022/11/03 07:03:26;;;;;;;10.73;6.00;;;;;;;22.06;55.27;97616.38;5051076;28;20207;-31
2022/11/03 07:05:57;;;;;;;5.90;5.30;;;;;;;22.07;55.40;97615.53;5031554;28;20680;-31
2022/11/03 07:08:41;;;;;;;7.10;5.60;;;;;;;22.06;55.67;97619.81;5043677;28;20587;-31
2022/11/03 07:11:13;;;;;;;6.27;5.50;;;;;;;;;;5064944;28;20224;-31
2022/11/03 07:13:39;;;;;;;6.03;5.27;;;;;;;22.05;56.19;97609.53;5055153;28;20208;-31
2022/11/03 07:16:21;;;;;;;5.30;4.80;;;;;;;22.08;56.40;97620.72;5065168;28;20217;-31
2022/11/03 07:18:48;;;;;;;9.20;7.00;;;;;;;22.04;55.15;97600.09;5058127;28;20690;-31
2022/11/03 07:21:27;;;;;;;10.93;8.07;;;;;;;22.10;52.55;97613.06;5059238;28;20229;-31
2022/11/03 07:23:53;;;;;;;10.07;8.83;;;;;;;22.08;51.61;97607.91;5037750;28;20199;-31
2022/11/03 07:26:20;;;;;;;14.80;8.13;;;;;;;22.05;51.09;97596.75;5043121;28;20617;-31
2022/11/03 07:28:47;;;;;;;12.20;7.63;;;;;;;21.99;50.67;97586.31;5047749;28;20201;-31
2022/11/03 07:31:22;;;;;;;9.73;7.90;;;;;;;22.07;51.87;97592.50;5037858;28;20229;-31
2022/11/03 07:33:49;;;;;;;12.37;7.30;;;;;;;22.07;52.48;97597.63;5024578;28;20204;-31
2022/11/03 07:36:19;;;;;;;10.10;7.73;;;;;;;22.06;52.86;97589.09;5031715;28;20207;-31
2022/11/03 07:38:49;;;;;;;9.87;6.57;;;;;;;22.06;53.45;97586.53;5043496;28;20205;-31
2022/11/03 07:41:18;;;;;;;7.80;6.97;;;;;;;22.01;53.79;97580.41;5039558;28;20229;-31
2022/11/03 07:43:55;;;;;;;7.90;6.77;;;;;;;21.99;54.20;97565.84;5051010;28;20225;-31
2022/11/03 07:46:22;;;;;;;7.60;6.80;;;;;;;22.08;54.55;97584.03;5046375;28;20212;-31
2022/11/03 07:48:54;;;;;;;8.73;6.50;;;;;;;22.09;54.45;97578.06;5035860;28;20720;-31
2022/11/03 07:51:29;;;;;;;7.13;6.43;;;;;;;22.09;54.49;97573.84;5040972;28;20227;-31
2022/11/03 07:54:37;;;;;;;9.73;6.63;;;;;;;22.10;53.14;97569.56;5052687;28;20201;-31
2022/11/03 07:57:24;;;;;;;7.07;6.37;;;;;;;22.10;53.51;97561.88;5063412;28;20210;-31
2022/11/03 08:00:03;;;;;;;7.17;6.00;;;;;;;22.10;53.64;97549.09;5040424;28;20598;-31
2022/11/03 08:02:38;;;;;;;7.30;5.93;;;;;;;22.00;54.46;97531.75;5041668;28;20363;-31
2022/11/03 08:05:05;;;;;;;7.47;6.10;;;;;;;22.11;54.77;97546.56;5045889;28;20207;-31
2022/11/03 08:07:32;;;;;;;6.00;5.50;;;;;;;22.12;54.84;97544.88;5038100;28;20197;-31
2022/11/03 08:09:58;;;;;;;6.60;5.90;;;;;;;22.12;55.26;97539.75;5053963;28;20590;-31
2022/11/03 08:12:25;;;;;;;6.20;5.60;;;;;;;22.13;55.81;97533.81;5033348;28;20217;-31
2022/11/03 08:14:52;;;;;;;6.23;5.17;;;;;;;22.09;55.72;97532.00;5043998;28;20604;-31
2022/11/03 08:17:18;;;;;;;5.83;5.33;;;;;;;22.14;55.85;97526.16;5040523;28;20204;-31
2022/11/03 08:19:45;;;;;;;6.33;5.30;;;;;;;22.14;56.11;97522.75;5052474;28;20204;-31
2022/11/03 08:22:11;;;;;;;5.60;5.10;;;;;;;22.15;56.25;97517.69;5046248;28;20571;-31
2022/11/03 08:24:38;;;;;;;6.10;5.50;;;;;;;22.15;56.21;97504.00;5036627;28;20213;-31
2022/11/03 08:27:04;;;;;;;5.23;4.70;;;;;;;22.16;56.39;97495.50;5048461;28;20215;-31
2022/11/03 08:29:31;;;;;;;5.37;4.87;;;;;;;22.15;56.00;97492.09;5046703;28;20215;-31
2022/11/03 08:31:57;;;;;;;6.43;5.57;;;;;;;22.15;56.40;97489.53;5042024;28;20224;-31
2022/11/03 08:34:24;;;;;;;5.27;4.77;;;;;;;22.18;56.73;97493.84;5038554;28;20204;-31
2022/11/03 08:36:50;;;;;;;5.50;5.00;;;;;;;22.18;56.72;97489.63;5032804;28;20205;-31
2022/11/03 08:39:17;;;;;;;5.07;4.57;;;;;;;22.18;56.47;97489.63;5044966;28;20702;-31
2022/11/03 08:41:43;;;;;;;6.03;5.00;;;;;;;22.18;56.79;97494.72;5036306;28;20229;-31
2022/11/03 08:44:10;;;;;;;6.57;5.03;;;;;;;22.19;56.76;97487.91;5031736;28;20201;-31
2022/11/03 08:46:36;;;;;;;4.87;4.47;;;;;;;22.19;56.83;97483.66;5034266;28;20202;-31
2022/11/03 08:49:03;;;;;;;4.70;4.30;;;;;;;22.12;57.04;97474.09;5042469;28;20576;-31
2022/11/03 08:51:29;;;;;;;6.23;4.57;;;;;;;22.17;57.40;97474.22;5051408;28;20224;-31
2022/11/03 08:53:56;;;;;;;5.00;4.50;;;;;;;22.20;57.05;97472.56;5044538;28;20202;-31
2022/11/03 08:56:22;;;;;;;4.63;4.23;;;;;;;22.17;57.06;97466.53;5041843;28;20209;-31
2022/11/03 08:58:49;;;;;;;5.17;4.67;;;;;;;22.20;57.24;97472.56;5047689;28;20212;-30
2022/11/03 09:01:15;;;;;;;4.93;4.50;;;;;;;22.21;57.30;97470.91;5046769;28;20233;-31
2022/11/03 09:03:42;;;;;;;4.63;4.23;;;;;;;22.21;57.24;97470.91;5043282;28;20208;-31
2022/11/03 09:06:09;;;;;;;5.30;4.83;;;;;;;22.20;57.44;97457.22;5049669;28;20247;-31
2022/11/03 09:08:35;;;;;;;4.73;4.27;;;;;;;22.14;57.60;97441.69;5044847;28;20674;-31
2022/11/03 09:11:22;;;;;;;4.63;4.00;;;;;;;22.16;57.32;97447.75;5035330;28;20224;-31
2022/11/03 09:13:48;;;;;;;4.70;4.10;;;;;;;22.21;57.44;97450.41;5037766;28;20235;-31
2022/11/03 09:16:15;;;;;;;4.40;4.00;;;;;;;22.21;57.54;97437.63;5043284;28;20209;-31
2022/11/03 09:18:42;;;;;;;5.67;4.77;;;;;;;22.22;57.61;97441.91;5045599;28;20205;-31
2022/11/03 09:21:09;;;;;;;4.70;4.30;;;;;;;22.18;57.62;97429.84;5041696;28;20223;-31
2022/11/03 09:23:35;;;;;;;4.70;4.13;;;;;;;22.21;57.48;97441.06;5050165;28;20211;-31
2022/11/03 09:26:02;;;;;;;4.60;4.20;;;;;;;22.22;57.54;97434.22;5051543;28;20207;-31
2022/11/03 09:28:28;;;;;;;5.63;5.13;;;;;;;22.22;57.11;97429.09;5035179;28;20205;-31
2022/11/03 09:30:55;;;;;;;6.63;5.83;;;;;;;22.22;55.46;97434.22;5060973;28;20239;-31
2022/11/03 09:33:21;;;;;;;8.77;6.23;;;;;;;22.20;55.25;97426.50;5046711;28;20702;-31
2022/11/03 09:35:48;;;;;;;8.23;5.90;;;;;;;22.21;55.85;97432.50;5042032;28;20229;-31
2022/11/03 09:38:14;;;;;;;7.47;5.90;;;;;;;22.21;56.21;97427.38;5051626;28;20204;-31
2022/11/03 09:40:41;;;;;;;6.60;5.37;;;;;;;22.21;56.46;97428.25;5045376;28;20228;-31
2022/11/03 09:43:07;;;;;;;5.77;5.17;;;;;;;22.21;56.70;97423.13;5047652;28;20227;-31
2022/11/03 09:45:34;;;;;;;5.57;5.07;;;;;;;22.20;57.07;97418.81;5033274;28;20288;-31
2022/11/03 09:48:01;;;;;;;5.20;4.70;;;;;;;22.14;57.31;97402.47;5047073;28;20203;-31
2022/11/03 09:50:27;;;;;;;5.63;4.70;;;;;;;22.23;57.42;97420.63;5062937;28;20630;-31
2022/11/03 09:52:54;;;;;;;5.07;4.57;;;;;;;22.21;57.44;97423.13;5049510;28;20232;-31
2022/11/03 09:55:23;;;;;;;4.63;4.23;;;;;;;22.22;57.50;97419.75;5041412;28;20211;-31
2022/11/03 09:57:58;;;;;;;4.90;4.40;;;;;;;22.23;57.43;97407.81;5041438;28;20202;-31
2022/11/03 10:00:26;;;;;;;6.60;4.30;;;;;;;22.18;57.65;97402.59;5041805;28;20715;-31
2022/11/03 10:02:52;;;;;;;4.77;4.30;;;;;;;22.20;57.60;97406.03;5031342;28;20201;-31
2022/11/03 10:05:24;;;;;;;6.70;4.50;;;;;;;22.23;57.58;97406.09;5031139;28;20204;-31
2022/11/03 10:07:51;;;;;;;4.87;4.40;;;;;;;22.12;57.63;97374.28;5045280;28;20200;-31
2022/11/03 10:10:23;;;;;;;5.33;4.50;;;;;;;22.21;57.67;97377.06;5025968;28;20322;-31
2022/11/03 10:12:51;;;;;;;6.03;4.20;;;;;;;22.24;57.79;97383.94;5038809;28;20538;-31
2022/11/03 10:15:19;;;;;;;5.10;4.60;;;;;;;22.22;57.75;97376.22;5037747;28;20219;-31
2022/11/03 10:17:45;;;;;;;4.60;4.20;;;;;;;22.23;57.80;97388.19;5044941;28;20212;-31
2022/11/03 10:20:13;;;;;;;4.60;4.20;;;;;;;22.21;58.10;97384.75;5056152;28;20217;-31
2022/11/03 10:22:40;;;;;;;4.57;4.17;;;;;;;22.17;58.02;97370.09;5060402;28;20578;-31
2022/11/03 10:25:41;;;;;;;8.63;4.47;;;;;;;22.24;58.10;97363.47;5059259;28;20679;-31
2022/11/03 10:28:20;;;;;;;6.10;4.27;;;;;;;22.24;58.16;97360.91;5058376;28;20210;-31
2022/11/03 10:30:54;;;;;;;6.40;4.90;;;;;;;22.25;58.15;97357.50;5039788;28;20212;-31
2022/11/03 10:33:52;;;;;;;11.20;4.53;;;;;;;22.26;58.07;97361.81;5034160;28;20640;-31
2022/11/03 10:36:19;;;;;;;11.23;4.77;;;;;;;22.26;58.24;97362.66;5033024;28;20204;-31
2022/11/03 10:38:46;;;;;;;5.77;4.43;;;;;;;22.23;58.12;97352.34;5038956;28;20683;-31
2022/11/03 10:41:22;;;;;;;6.33;4.30;;;;;;;22.26;58.50;97351.56;5043226;28;20228;-31
2022/11/03 10:44:11;;;;;;;4.73;4.03;;;;;;;22.27;58.23;97355.84;5040557;28;21342;-31
2022/11/03 10:46:38;;;;;;;5.43;4.40;;;;;;;22.26;58.22;97344.72;5044504;28;20566;-31
2022/11/03 10:49:20;;;;;;;4.40;4.00;;;;;;;22.26;58.06;97349.84;5045755;28;20197;-31
2022/11/03 10:51:51;;;;;;;7.23;4.90;;;;;;;22.26;58.35;97346.44;5051817;28;20286;-31
2022/11/03 10:54:22;;;;;;;6.17;4.30;;;;;;;22.21;58.07;97336.09;5058139;28;20236;-31
2022/11/03 10:56:49;;;;;;;8.37;4.00;;;;;;;22.22;58.23;97340.38;5040999;28;20246;-31
2022/11/03 10:59:17;;;;;;;9.13;4.10;;;;;;;22.26;58.28;97354.13;5051730;28;20209;-31
2022/11/03 11:01:43;;;;;;;6.70;4.27;;;;;;;22.27;58.33;97353.28;5044378;28;20217;-31
2022/11/03 11:04:17;;;;;;;7.77;4.03;;;;;;;22.25;58.51;97337.00;5042071;28;20287;-31
2022/11/03 11:06:45;;;;;;;6.67;3.73;;;;;;;22.15;58.41;97309.47;5022738;28;20288;-31
2022/11/03 11:09:13;;;;;;;8.13;4.37;;;;;;;22.25;58.51;97324.22;5035314;28;20775;-31
2022/11/03 11:11:57;;;;;;;7.20;4.20;;;;;;;22.19;58.37;97306.16;5045198;28;20217;-31
2022/11/03 11:14:27;;;;;;;6.33;4.00;;;;;;;22.26;58.47;97321.69;5038049;28;20247;-31
2022/11/03 11:16:57;;;;;;;6.53;4.20;;;;;;;22.18;58.58;97307.88;5041847;28;20201;-31
2022/11/03 11:19:25;;;;;;;10.73;5.93;;;;;;;22.18;57.51;97307.00;5045228;28;20215;-31
2022/11/03 11:21:51;;;;;;;11.47;5.33;;;;;;;22.26;57.40;97325.97;5046671;28;20225;-31
2022/11/03 11:24:42;;;;;;;12.13;5.50;;;;;;;22.26;57.76;97308.03;5047674;28;20205;-31
2022/11/03 11:27:30;;;;;;;6.13;5.00;;;;;;;22.24;57.98;97313.13;5045016;28;20205;-31
2022/11/03 11:30:04;;;;;;;6.53;5.47;;;;;;;22.25;57.65;97312.28;5040063;28;20201;-31
2022/11/03 11:32:48;;;;;;;7.93;6.27;;;;;;;22.24;56.36;97305.44;5040855;28;20730;-31
2022/11/03 11:35:17;;;;;;;7.83;5.67;;;;;;;22.24;56.46;97292.66;5050115;28;20205;-31
2022/11/03 11:37:44;;;;;;;16.37;5.77;;;;;;;22.23;57.11;97296.03;5052147;28;20201;-31
2022/11/03 11:40:23;;;;;;;8.97;6.33;;;;;;;22.24;57.27;97302.00;5045937;28;20663;-31
2022/11/03 11:43:01;;;;;;;7.77;5.27;;;;;;;22.23;57.59;97283.22;5051395;28;20606;-31
2022/11/03 11:46:05;;;;;;;7.13;5.30;;;;;;;22.23;57.68;97277.25;5045123;28;20200;-31
2022/11/03 11:48:32;;;;;;;6.57;4.90;;;;;;;22.23;58.01;97278.09;5040041;28;20201;-31
2022/11/03 11:50:59;;;;;;;6.60;4.90;;;;;;;22.24;58.09;97278.97;5046871;28;20786;-31
2022/11/03 11:53:26;;;;;;;7.80;5.37;;;;;;;22.19;57.89;97271.19;5039189;28;20255;-31
2022/11/03 11:55:58;;;;;;;16.23;5.80;;;;;;;22.19;58.13;97266.06;5028739;28;20205;-31
2022/11/03 11:58:31;;;;;;;7.10;5.00;;;;;;;22.24;58.16;97269.63;5037118;28;20211;-31
2022/11/03 12:01:02;;;;;;;5.27;4.77;;;;;;;22.24;58.26;97269.63;5038116;28;20229;-31
2022/11/03 12:03:35;;;;;;;6.67;5.33;;;;;;;22.26;58.40;97269.66;5040492;28;20204;-31
2022/11/03 12:06:02;;;;;;;7.20;4.70;;;;;;;22.17;58.33;97254.94;5046483;28;20258;-31
2022/11/03 12:08:29;;;;;;;5.83;4.93;;;;;;;22.20;58.25;97267.78;5043379;28;20204;-31
2022/11/03 12:11:01;;;;;;;9.67;4.73;;;;;;;22.24;58.32;97273.84;5047623;28;20220;-31
2022/11/03 12:13:35;;;;;;;8.80;5.40;;;;;;;22.24;58.29;97266.19;5037914;28;20742;-31